createdAt,value
2023-04-24T00:03:22.514Z,1.69
2023-04-24T00:07:20.285Z,1.69
2023-04-24T00:11:20.341Z,1.69
2023-04-24T00:15:20.636Z,1.69
2023-04-24T00:19:20.672Z,1.69
2023-04-24T00:23:20.577Z,1.69
2023-04-24T00:27:20.605Z,1.69
2023-04-24T00:31:21.114Z,1.69
2023-04-24T00:35:20.784Z,1.69
2023-04-24T00:39:20.863Z,1.69
2023-04-24T00:43:21.938Z,1.69
2023-04-24T00:47:20.222Z,1.69
2023-04-24T00:51:20.310Z,1.69
2023-04-24T00:55:20.682Z,1.69
2023-04-24T00:59:20.866Z,1.69
2023-04-24T01:03:22.296Z,1.69
2023-04-24T01:07:20.939Z,1.69
2023-04-24T01:11:20.990Z,1.69
2023-04-24T01:15:20.278Z,1.69
2023-04-24T01:19:20.502Z,1.69
2023-04-24T01:23:20.466Z,1.69
2023-04-24T01:27:20.544Z,1.69
2023-04-24T01:31:20.950Z,1.69
2023-04-24T01:35:20.837Z,1.69
2023-04-24T01:39:20.877Z,1.69
2023-04-24T01:43:20.148Z,1.69
2023-04-24T01:47:20.500Z,1.69
2023-04-24T01:51:20.438Z,1.69
2023-04-24T01:55:20.409Z,1.69
2023-04-24T01:59:20.486Z,1.69
2023-04-24T02:03:23.639Z,1.69
2023-04-24T02:07:20.466Z,1.69
2023-04-24T02:11:20.974Z,1.69
2023-04-24T02:15:20.028Z,1.69
2023-04-24T02:19:20.071Z,1.69
2023-04-24T02:23:20.251Z,1.69
2023-04-24T02:27:20.271Z,1.69
2023-04-24T02:31:20.468Z,1.69
2023-04-24T02:35:20.713Z,1.69
2023-04-24T02:39:20.731Z,1.69
2023-04-24T02:43:20.756Z,1.69
2023-04-24T02:47:21.280Z,1.69
2023-04-24T02:51:20.876Z,1.69
2023-04-24T02:55:20.056Z,1.69
2023-04-24T02:59:20.277Z,1.69
2023-04-24T03:03:21.410Z,1.69
2023-04-24T03:07:20.531Z,1.69
2023-04-24T03:11:22.150Z,1.69
2023-04-24T03:15:19.973Z,1.69
2023-04-24T03:19:20.234Z,1.69
2023-04-24T03:23:25.408Z,1.69
2023-04-24T03:27:20.484Z,1.69
2023-04-24T03:31:20.911Z,1.69
2023-04-24T03:35:20.850Z,1.69
2023-04-24T03:39:19.967Z,1.69
2023-04-24T03:43:23.735Z,1.69
2023-04-24T03:47:21.224Z,1.69
2023-04-24T03:51:20.966Z,1.69
2023-04-24T03:55:20.790Z,1.69
2023-04-24T03:59:20.890Z,1.69
2023-04-24T04:03:22.076Z,1.69
2023-04-24T04:07:20.084Z,1.69
2023-04-24T04:11:20.726Z,1.69
2023-04-24T04:15:20.692Z,1.69
2023-04-24T04:19:20.736Z,1.69
2023-04-24T04:23:20.772Z,1.69
2023-04-24T04:27:20.730Z,1.69
2023-04-24T04:31:20.605Z,1.69
2023-04-24T04:35:21.869Z,1.69
2023-04-24T04:39:20.761Z,1.69
2023-04-24T04:43:20.946Z,1.69
2023-04-24T04:47:21.166Z,1.69
2023-04-24T04:51:20.558Z,1.69
2023-04-24T04:55:20.455Z,1.69
2023-04-24T04:59:20.622Z,1.69
2023-04-24T05:03:41.770Z,1.69
2023-04-24T05:07:21.007Z,1.69
2023-04-24T05:11:20.604Z,1.69
2023-04-24T05:15:20.454Z,1.69
2023-04-24T05:19:20.686Z,1.69
2023-04-24T05:23:20.460Z,1.69
2023-04-24T05:27:20.248Z,1.69
2023-04-24T05:31:20.518Z,1.69
2023-04-24T05:35:20.450Z,1.69
2023-04-24T05:39:20.383Z,1.69
2023-04-24T05:43:20.304Z,1.69
2023-04-24T05:47:21.167Z,1.69
2023-04-24T05:51:22.324Z,1.69
2023-04-24T05:55:20.792Z,1.69
2023-04-24T05:59:20.619Z,1.69
2023-04-24T06:03:22.334Z,1.69
2023-04-24T06:07:20.581Z,1.69
2023-04-24T06:11:20.778Z,1.69
2023-04-24T06:15:20.730Z,1.69
2023-04-24T06:19:20.682Z,1.69
2023-04-24T06:23:20.724Z,1.69
2023-04-24T06:27:20.719Z,1.69
2023-04-24T06:31:20.784Z,1.69
2023-04-24T06:35:22.215Z,1.69
2023-04-24T06:39:20.563Z,1.69
2023-04-24T06:43:20.840Z,1.69
2023-04-24T06:47:21.289Z,1.69
2023-04-24T06:51:20.716Z,1.69
2023-04-24T06:55:20.633Z,1.69
2023-04-24T06:59:20.602Z,1.69
2023-04-24T07:03:21.971Z,1.69
2023-04-24T07:07:20.510Z,1.69
2023-04-24T07:11:20.711Z,1.69
2023-04-24T07:15:20.301Z,1.69
2023-04-24T07:19:24.224Z,1.69
2023-04-24T07:23:20.576Z,1.69
2023-04-24T07:27:20.492Z,1.69
2023-04-24T07:31:20.678Z,1.69
2023-04-24T07:35:20.579Z,1.69
2023-04-24T07:39:20.797Z,0.31
2023-04-24T07:43:20.887Z,0.67
2023-04-24T07:47:21.289Z,0.67
2023-04-24T07:51:20.855Z,1.07
2023-04-24T07:55:23.745Z,1.34
2023-04-24T07:59:20.895Z,1.34
2023-04-24T08:03:22.089Z,1.83
2023-04-24T08:07:20.678Z,2.07
2023-04-24T08:11:22.032Z,2.07
2023-04-24T08:15:20.416Z,2.68
2023-04-24T08:19:20.799Z,3.17
2023-04-24T08:23:20.833Z,3.17
2023-04-24T08:27:20.648Z,3.25
2023-04-24T08:31:20.829Z,4.14
2023-04-24T08:35:23.263Z,4.14
2023-04-24T08:39:20.733Z,3.97
2023-04-24T08:43:20.010Z,3.27
2023-04-24T08:47:20.864Z,3.27
2023-04-24T08:51:20.293Z,3.79
2023-04-24T08:55:20.097Z,4
2023-04-24T08:59:20.396Z,4
2023-04-24T09:03:22.283Z,4.72
2023-04-24T09:07:20.397Z,4.8
2023-04-24T09:11:22.968Z,4.8
2023-04-24T09:15:21.039Z,3.97
2023-04-24T09:19:20.022Z,4.41
2023-04-24T09:23:20.335Z,4.41
2023-04-24T09:27:22.645Z,4.51
2023-04-24T09:31:20.685Z,4.35
2023-04-24T09:35:23.002Z,4.35
2023-04-24T09:39:20.748Z,4.35
2023-04-24T09:43:20.568Z,4.35
2023-04-24T09:47:21.380Z,4.35
2023-04-24T09:51:20.755Z,4.35
2023-04-24T09:55:20.869Z,4.35
2023-04-24T09:59:20.809Z,4.35
2023-04-24T10:03:21.690Z,4.35
2023-04-24T10:07:20.967Z,4.35
2023-04-24T10:11:20.401Z,4.35
2023-04-24T10:15:22.327Z,4.35
2023-04-24T10:19:20.305Z,4.35
2023-04-24T10:23:20.502Z,4.35
2023-04-24T10:27:20.706Z,4.35
2023-04-24T10:31:20.894Z,4.35
2023-04-24T10:35:21.064Z,4.35
2023-04-24T10:39:27.326Z,0.54
2023-04-24T10:43:21.731Z,1.09
2023-04-24T10:47:21.475Z,1.09
2023-04-24T10:51:20.709Z,1.79
2023-04-24T10:55:21.403Z,2.02
2023-04-24T10:59:20.954Z,2.02
2023-04-24T11:03:21.972Z,2.13
2023-04-24T11:07:21.050Z,2.37
2023-04-24T11:11:21.183Z,2.37
2023-04-24T11:15:21.277Z,2.05
2023-04-24T11:19:20.602Z,2.16
2023-04-24T11:23:20.402Z,2.16
2023-04-24T11:27:20.253Z,2.11
2023-04-24T11:31:20.979Z,1.95
2023-04-24T11:35:20.144Z,1.95
2023-04-24T11:39:43.183Z,3.01
2023-04-24T11:43:20.148Z,4.26
2023-04-24T11:47:21.419Z,4.26
2023-04-24T11:51:21.596Z,5.28
2023-04-24T11:55:24.386Z,6.13
2023-04-24T11:59:20.508Z,6.13
2023-04-24T12:03:25.823Z,4.87
2023-04-24T12:07:21.046Z,5.2
2023-04-24T12:11:21.232Z,5.2
2023-04-24T12:15:21.138Z,5.61
2023-04-24T12:19:20.926Z,4.23
2023-04-24T12:23:21.017Z,4.23
2023-04-24T12:27:20.805Z,2.88
2023-04-24T12:31:20.962Z,3.97
2023-04-24T12:35:21.004Z,3.97
2023-04-24T12:39:20.683Z,4.35
2023-04-24T12:43:20.670Z,3.59
2023-04-24T12:47:22.785Z,3.52
2023-04-24T12:51:21.625Z,3.52
2023-04-24T12:55:20.118Z,4.11
2023-04-24T12:59:20.121Z,4.08
2023-04-24T13:03:22.439Z,4.11
2023-04-24T13:07:20.627Z,4.14
2023-04-24T13:11:21.069Z,4.32
2023-04-24T13:15:21.209Z,4.45
2023-04-24T13:19:20.266Z,4.99
2023-04-24T13:23:20.322Z,4.87
2023-04-24T13:27:20.337Z,5.81
2023-04-24T13:31:20.519Z,5.91
2023-04-24T13:35:20.624Z,5.86
2023-04-24T13:39:20.661Z,5.61
2023-04-24T13:43:23.742Z,6.02
2023-04-24T13:47:21.084Z,6.02
2023-04-24T13:51:20.933Z,5.97
2023-04-24T13:55:19.994Z,5.46
2023-04-24T13:59:20.369Z,5.61
2023-04-24T14:03:21.997Z,6.25
2023-04-24T14:07:20.580Z,6.69
2023-04-24T14:11:21.000Z,6.56
2023-04-24T14:15:21.011Z,6.76
2023-04-24T14:19:21.670Z,6.43
2023-04-24T14:23:20.230Z,6.62
2023-04-24T14:27:20.292Z,6.37
2023-04-24T14:31:20.584Z,6.97
2023-04-24T14:35:20.255Z,6.89
2023-04-24T14:39:20.440Z,5.76
2023-04-24T14:43:20.385Z,5.46
2023-04-24T14:47:21.380Z,5.33
2023-04-24T14:51:21.290Z,4.62
2023-04-24T14:55:20.948Z,4.23
2023-04-24T14:59:20.180Z,4.2
2023-04-24T15:03:36.343Z,4.8
2023-04-24T15:07:20.871Z,4.72
2023-04-24T15:11:20.319Z,5.24
2023-04-24T15:15:20.364Z,5.15
2023-04-24T15:19:21.672Z,5.46
2023-04-24T15:23:20.759Z,5.46
2023-04-24T15:27:23.357Z,5.07
2023-04-24T15:31:20.749Z,5.07
2023-04-24T15:35:32.028Z,4.91
2023-04-24T15:39:21.060Z,5.42
2023-04-24T15:43:21.170Z,5.71
2023-04-24T15:47:20.411Z,5.46
2023-04-24T15:51:22.437Z,5.24
2023-04-24T15:55:20.044Z,10.79
2023-04-24T15:59:20.662Z,10.19
2023-04-24T16:03:21.859Z,8.93
2023-04-24T16:07:20.036Z,11.83
2023-04-24T16:11:20.252Z,12.22
2023-04-24T16:15:20.324Z,13.29
2023-04-24T16:19:20.918Z,14.57
2023-04-24T16:23:20.323Z,14.03
2023-04-24T16:27:20.312Z,15.14
2023-04-24T16:31:20.833Z,15.14
2023-04-24T16:35:20.923Z,15.44
2023-04-24T16:39:21.204Z,12.84
2023-04-24T16:43:20.897Z,14.85
2023-04-24T16:47:21.550Z,14.85
2023-04-24T16:51:20.973Z,13.29
2023-04-24T16:55:20.777Z,13.78
2023-04-24T16:59:21.309Z,12.84
2023-04-24T17:03:24.249Z,9.78
2023-04-24T17:07:20.807Z,11.46
2023-04-24T17:11:20.939Z,10.49
2023-04-24T17:15:20.199Z,12.22
2023-04-24T17:19:20.743Z,12.63
2023-04-24T17:23:25.191Z,13.53
2023-04-24T17:27:34.491Z,13.53
2023-04-24T17:31:20.029Z,11.29
2023-04-24T17:35:22.666Z,9.52
2023-04-24T17:39:20.575Z,8.21
2023-04-24T17:43:22.567Z,6.76
2023-04-24T17:47:21.140Z,5.97
2023-04-24T17:51:20.510Z,6.25
2023-04-24T17:55:20.813Z,5.66
2023-04-24T17:59:21.529Z,5.42
2023-04-24T18:03:22.054Z,4.58
2023-04-24T18:07:20.679Z,4.91
2023-04-24T18:11:20.918Z,5.24
2023-04-24T18:15:36.968Z,4.41
2023-04-24T18:19:21.333Z,4.48
2023-04-24T18:23:21.063Z,4.69
2023-04-24T18:27:19.836Z,3.91
2023-04-24T18:31:22.487Z,4.05
2023-04-24T18:35:20.379Z,4.29
2023-04-24T18:39:22.910Z,3.08
2023-04-24T18:43:20.381Z,3.29
2023-04-24T18:47:21.024Z,3.05
2023-04-24T18:51:20.587Z,3.03
2023-04-24T18:55:20.599Z,2.66
2023-04-24T18:59:21.244Z,2.73
2023-04-24T19:03:22.106Z,3.01
2023-04-24T19:07:20.770Z,2.89
2023-04-24T19:11:20.916Z,2.92
2023-04-24T19:15:20.769Z,3.03
2023-04-24T19:19:21.295Z,3.29
2023-04-24T19:23:20.063Z,3.21
2023-04-24T19:27:20.809Z,3.27
2023-04-24T19:31:20.936Z,3.03
2023-04-24T19:35:23.458Z,2.88
2023-04-24T19:39:20.262Z,2.98
2023-04-24T19:43:39.185Z,3.55
2023-04-24T19:47:20.760Z,3.55
2023-04-24T19:51:20.789Z,3.46
2023-04-24T19:55:20.449Z,3.17
2023-04-24T19:59:20.573Z,3.37
2023-04-24T20:03:43.143Z,3.55
2023-04-24T20:07:20.682Z,3.25
2023-04-24T20:11:21.140Z,3.03
2023-04-24T20:15:20.042Z,2.73
2023-04-24T20:19:20.445Z,2.99
2023-04-24T20:23:21.244Z,3.15
2023-04-24T20:27:20.511Z,2.69
2023-04-24T20:31:21.112Z,2.28
2023-04-24T20:35:20.994Z,2.26
2023-04-24T20:39:21.180Z,2.86
2023-04-24T20:43:21.877Z,2.71
2023-04-24T20:47:20.973Z,2.62
2023-04-24T20:51:20.497Z,2.11
2023-04-24T20:55:20.641Z,2.13
2023-04-24T20:59:21.126Z,2.1
2023-04-24T21:03:21.727Z,2
2023-04-24T21:07:20.668Z,1.98
2023-04-24T21:11:20.759Z,1.99
2023-04-24T21:15:22.995Z,2.06
2023-04-24T21:19:20.915Z,1.99
2023-04-24T21:23:20.869Z,1.98
2023-04-24T21:27:21.275Z,1.97
2023-04-24T21:31:21.241Z,1.96
2023-04-24T21:35:20.870Z,2.03
2023-04-24T21:39:20.902Z,2.03
2023-04-24T21:43:25.397Z,1.99
2023-04-24T21:47:21.527Z,1.98
2023-04-24T21:51:20.559Z,2.06
2023-04-24T21:55:20.188Z,2.02
2023-04-24T21:59:20.419Z,2.01
2023-04-24T22:03:21.739Z,2.03
2023-04-24T22:07:20.535Z,2.12
2023-04-24T22:11:37.491Z,2.1
2023-04-24T22:15:21.026Z,1.99
2023-04-24T22:19:32.915Z,1.98
2023-04-24T22:23:19.969Z,1.98
2023-04-24T22:27:20.324Z,1.98
2023-04-24T22:31:20.727Z,1.97
2023-04-24T22:35:20.578Z,1.97
2023-04-24T22:39:20.792Z,1.97
2023-04-24T22:43:20.843Z,1.96
2023-04-24T22:47:20.792Z,1.95
2023-04-24T22:51:21.161Z,2.04
2023-04-24T22:55:20.132Z,2
2023-04-24T22:59:20.220Z,2
2023-04-24T23:03:22.382Z,1.97
2023-04-24T23:07:20.873Z,1.99
2023-04-24T23:11:20.112Z,1.99
2023-04-24T23:15:20.274Z,2.19
2023-04-24T23:19:20.813Z,2.04
2023-04-24T23:23:20.885Z,2.02
2023-04-24T23:27:20.925Z,2
2023-04-24T23:31:20.113Z,1.99
2023-04-24T23:35:20.151Z,1.99
2023-04-24T23:39:34.934Z,1.99
2023-04-24T23:43:31.446Z,2
2023-04-24T23:47:20.609Z,2
2023-04-24T23:51:20.854Z,2.07
2023-04-24T23:55:20.967Z,2.07
2023-04-24T23:59:20.993Z,2.06
